Time;durP1;ratioP1;P1;durP2;ratioP2;P2;SDS_P1;SDS_P2;PMS_P1;PMS_P2;Temp;Humidity;BMP_temperature;BMP_pressure;BME280_temperature;BME280_humidity;BME280_pressure;Samples;Min_cycle;Max_cycle;Signal;HPM_P1;HPM_P2
2022/03/22 00:07:27;;;;;;;16.62;8.95;;;10.60;91.50;;;;;;6754555;88;20251;-80
2022/03/22 00:17:28;;;;;;;20.00;9.05;;;10.30;93.20;;;;;;6734634;88;20201;-81
2022/03/22 00:27:50;;;;;;;16.45;8.45;;;10.10;93.40;;;;;;6735334;88;20184;-80
2022/03/22 00:37:54;;;;;;;15.15;8.10;;;10.20;92.40;;;;;;6734825;88;20203;-79
2022/03/22 00:47:57;;;;;;;16.15;9.00;;;10.30;91.40;;;;;;6739298;88;20231;-79
2022/03/22 00:57:58;;;;;;;15.85;8.48;;;10.40;90.90;;;;;;6737675;88;20173;-79
2022/03/22 01:08:05;;;;;;;16.48;8.40;;;10.30;90.80;;;;;;6738211;88;20222;-79
2022/03/22 01:18:08;;;;;;;14.07;8.07;;;10.30;90.10;;;;;;6739019;88;20206;-80
2022/03/22 01:28:10;;;;;;;19.92;9.20;;;10.20;90.20;;;;;;6737257;88;20219;-79
2022/03/22 01:38:10;;;;;;;17.67;8.77;;;9.80;91.70;;;;;;6736396;88;20230;-81
2022/03/22 01:48:11;;;;;;;16.67;8.77;;;9.40;94.90;;;;;;6736056;88;20218;-80
2022/03/22 01:58:13;;;;;;;18.60;8.90;;;9.20;96.40;;;;;;6738570;88;20189;-83
2022/03/22 02:08:18;;;;;;;19.02;9.05;;;9.20;97.80;;;;;;6737537;88;20207;-79
2022/03/22 02:18:18;;;;;;;18.62;10.13;;;9.00;99.90;;;;;;6739530;88;20189;-80
2022/03/22 02:28:22;;;;;;;15.27;8.80;;;8.60;99.90;;;;;;6738177;88;20218;-81
2022/03/22 02:38:23;;;;;;;18.70;9.50;;;8.30;99.90;;;;;;6737470;88;20216;-81
2022/03/22 02:48:24;;;;;;;17.37;9.35;;;8.10;99.90;;;;;;6738318;88;20802;-81
2022/03/22 02:58:26;;;;;;;19.00;10.18;;;7.90;99.90;;;;;;6738015;88;20181;-79
2022/03/22 03:08:26;;;;;;;18.02;9.23;;;7.90;99.90;;;;;;6737098;88;20227;-80
2022/03/22 03:28:30;;;;;;;17.58;9.45;;;7.70;99.90;;;;;;6742968;88;20569;-77
2022/03/22 03:38:31;;;;;;;20.00;10.40;;;7.60;99.90;;;;;;6725485;88;20272;-78
2022/03/22 03:48:32;;;;;;;22.33;10.57;;;7.60;99.90;;;;;;6729354;88;20206;-77
2022/03/22 03:58:33;;;;;;;22.45;11.02;;;7.30;99.90;;;;;;6728645;88;20194;-78
2022/03/22 04:08:33;;;;;;;19.12;9.75;;;7.20;99.90;;;;;;6726596;88;20197;-77
2022/03/22 04:18:34;;;;;;;19.85;10.75;;;7.00;99.90;;;;;;6724741;88;20196;-77
2022/03/22 04:38:54;;;;;;;23.15;11.95;;;6.60;99.90;;;;;;6725740;88;20660;-77
2022/03/22 04:48:55;;;;;;;39.42;18.40;;;6.50;99.90;;;;;;6723317;88;20174;-78
2022/03/22 04:58:56;;;;;;;34.25;17.50;;;6.30;99.90;;;;;;6726194;88;20189;-77
2022/03/22 05:08:57;;;;;;;29.67;15.23;;;6.20;99.90;;;;;;6726098;88;20188;-77
2022/03/22 05:18:58;;;;;;;35.22;15.93;;;6.20;99.90;;;;;;6724795;88;20203;-77
2022/03/22 05:28:59;;;;;;;33.72;14.00;;;6.00;99.90;;;;;;6722363;88;21019;-79
2022/03/22 05:38:59;;;;;;;25.40;12.68;;;5.80;99.90;;;;;;6718755;88;21371;-77
2022/03/22 05:49:00;;;;;;;22.95;11.65;;;5.70;99.90;;;;;;6723827;88;20211;-77
2022/03/22 05:59:00;;;;;;;25.02;12.68;;;5.70;99.90;;;;;;6724204;88;20194;-77
2022/03/22 06:09:01;;;;;;;23.58;11.93;;;5.60;99.90;;;;;;6720661;88;20262;-78
2022/03/22 06:19:02;;;;;;;22.58;11.40;;;5.80;99.90;;;;;;6738625;88;20170;-79
2022/03/22 06:29:02;;;;;;;20.37;11.27;;;5.90;99.90;;;;;;6727714;88;20677;-77
2022/03/22 06:39:04;;;;;;;25.30;11.52;;;6.20;99.90;;;;;;6715962;88;20689;-78
2022/03/22 06:49:05;;;;;;;18.58;10.43;;;6.50;99.90;;;;;;6729323;88;20215;-79
2022/03/22 06:59:06;;;;;;;22.95;9.68;;;6.90;99.90;;;;;;6725588;88;20178;-78
2022/03/22 07:09:06;;;;;;;21.23;10.02;;;7.50;99.90;;;;;;6726230;88;20199;-78
2022/03/22 07:19:07;;;;;;;20.08;10.18;;;8.00;99.90;;;;;;6722970;88;20614;-78
2022/03/22 07:29:08;;;;;;;19.58;10.05;;;8.60;99.90;;;;;;6724663;88;20185;-79
2022/03/22 07:39:10;;;;;;;20.58;10.38;;;9.50;99.90;;;;;;6726569;88;20321;-78
2022/03/22 07:59:30;;;;;;;20.00;10.10;;;10.60;99.90;;;;;;6719613;88;20186;-78
2022/03/22 08:09:30;;;;;;;20.35;9.82;;;11.10;98.70;;;;;;6717573;88;20263;-78
2022/03/22 08:19:31;;;;;;;20.67;9.40;;;11.90;97.10;;;;;;6725963;88;20251;-79
2022/03/22 08:29:31;;;;;;;19.27;10.15;;;13.00;94.10;;;;;;6733039;88;20565;-79
2022/03/22 08:39:32;;;;;;;16.58;10.15;;;13.50;91.70;;;;;;6726076;88;20672;-78
2022/03/22 08:49:33;;;;;;;19.00;10.50;;;14.50;89.00;;;;;;6723031;88;20189;-78
2022/03/22 08:59:34;;;;;;;17.52;9.07;;;14.10;85.80;;;;;;6716661;88;20185;-79
2022/03/22 09:09:34;;;;;;;14.98;9.00;;;14.30;83.90;;;;;;6716528;88;20319;-78
2022/03/22 09:29:38;;;;;;;16.33;9.27;;;16.00;75.50;;;;;;6723985;88;20601;-81
2022/03/22 09:39:39;;;;;;;15.73;9.48;;;16.20;70.50;;;;;;6744709;88;20306;-81
2022/03/22 09:49:40;;;;;;;14.05;9.10;;;16.60;69.60;;;;;;6734474;88;20709;-80
2022/03/22 09:59:40;;;;;;;15.27;8.63;;;18.80;65.30;;;;;;6727493;88;20194;-78
2022/03/22 10:09:41;;;;;;;11.90;8.27;;;18.50;62.40;;;;;;6726474;88;20211;-79
2022/03/22 10:19:43;;;;;;;13.27;8.27;;;20.00;58.60;;;;;;6727029;88;20214;-79
2022/03/22 10:29:44;;;;;;;13.90;8.30;;;21.00;58.00;;;;;;6732210;88;20561;-79
2022/03/22 10:39:45;;;;;;;13.00;8.05;;;20.20;55.70;;;;;;6729830;88;20181;-79
2022/03/22 10:49:45;;;;;;;13.32;8.45;;;20.00;55.70;;;;;;6723882;88;20199;-80
2022/03/22 10:59:48;;;;;;;11.57;8.48;;;21.80;53.40;;;;;;6722986;88;20214;-80
2022/03/22 11:09:48;;;;;;;11.25;8.02;;;24.10;50.80;;;;;;6736274;88;20696;-79
2022/03/22 11:19:49;;;;;;;12.30;8.30;;;24.10;48.70;;;;;;6739582;88;20205;-78
2022/03/22 11:29:51;;;;;;;13.45;8.77;;;25.20;47.70;;;;;;6739265;88;20200;-78
2022/03/22 11:50:20;;;;;;;13.82;9.02;;;24.20;45.30;;;;;;6725851;88;20188;-80
2022/03/22 12:00:42;;;;;;;16.70;8.70;;;23.60;47.50;;;;;;6721950;88;20205;-79
2022/03/22 12:10:51;;;;;;;15.00;9.25;;;23.00;47.60;;;;;;6725504;88;20650;-80
2022/03/22 12:20:55;;;;;;;12.25;9.48;;;24.50;46.70;;;;;;6732173;88;20245;-78
2022/03/22 12:30:56;;;;;;;12.80;9.57;;;25.00;46.30;;;;;;6736095;88;20217;-80
2022/03/22 12:40:57;;;;;;;13.32;9.98;;;25.80;46.90;;;;;;6735330;88;20623;-79
2022/03/22 12:50:58;;;;;;;13.55;9.95;;;26.10;44.30;;;;;;6758514;88;20193;-82
2022/03/22 13:01:40;;;;;;;14.65;9.38;;;26.40;46.90;;;;;;6764737;77;20166;-81
2022/03/22 13:11:40;;;;;;;14.23;9.82;;;26.60;47.70;;;;;;6784525;88;20885;-80
2022/03/22 13:21:41;;;;;;;16.02;10.00;;;24.90;47.50;;;;;;6782551;88;20172;-81
2022/03/22 13:31:53;;;;;;;13.05;8.70;;;25.40;46.20;;;;;;6744822;88;20267;-81
2022/03/22 13:42:09;;;;;;;10.00;7.20;;;24.00;46.30;;;;;;6749029;88;20324;-81
2022/03/22 13:52:10;;;;;;;12.00;7.35;;;24.40;44.00;;;;;;6760008;88;20209;-79
2022/03/22 14:02:11;;;;;;;11.98;7.40;;;22.10;44.80;;;;;;6774424;88;20207;-81
2022/03/22 14:23:14;;;;;;;11.18;7.12;;;23.50;44.40;;;;;;6786074;88;20656;-79
2022/03/22 14:33:15;;;;;;;11.32;6.87;;;22.30;45.20;;;;;;6786429;88;20207;-80
2022/03/22 14:43:16;;;;;;;11.95;6.95;;;22.70;46.00;;;;;;6768772;88;20237;-78
2022/03/22 15:03:37;;;;;;;12.23;7.35;;;22.10;44.70;;;;;;6766331;88;20197;-77
2022/03/22 15:13:38;;;;;;;12.05;7.20;;;21.60;46.50;;;;;;6755604;88;20193;-77
2022/03/22 15:23:59;;;;;;;12.23;6.97;;;21.70;45.60;;;;;;6766261;77;20265;-80
2022/03/22 15:33:59;;;;;;;13.00;7.40;;;21.70;46.80;;;;;;6741447;88;20178;-82
2022/03/22 15:44:00;;;;;;;13.10;7.40;;;21.70;46.50;;;;;;6736659;88;20217;-82
2022/03/22 15:54:01;;;;;;;13.55;7.70;;;21.30;46.60;;;;;;6746226;88;20180;-79
2022/03/22 16:04:20;;;;;;;12.27;7.87;;;21.70;46.60;;;;;;6725206;88;20277;-82
2022/03/22 16:14:23;;;;;;;11.90;7.72;;;21.00;46.50;;;;;;6704112;88;20179;-82
2022/03/22 16:24:23;;;;;;;11.23;7.68;;;20.60;47.20;;;;;;6712254;88;21987;-82
2022/03/22 16:44:47;;;;;;;11.68;7.68;;;20.00;47.40;;;;;;6753632;88;20197;-83
2022/03/22 16:54:48;;;;;;;13.13;7.17;;;19.80;47.50;;;;;;6754165;88;20197;-82
2022/03/22 17:04:49;;;;;;;11.77;7.37;;;19.50;48.00;;;;;;6754953;88;20196;-81
2022/03/22 17:14:49;;;;;;;10.85;6.68;;;18.50;49.90;;;;;;6751255;88;20235;-82
2022/03/22 17:24:50;;;;;;;12.48;7.05;;;18.60;50.20;;;;;;6751226;88;20684;-80
2022/03/22 17:34:53;;;;;;;11.20;6.95;;;18.10;50.60;;;;;;6730670;88;20181;-81
2022/03/22 17:44:53;;;;;;;12.73;6.85;;;18.00;51.70;;;;;;6739699;88;20193;-82
2022/03/22 17:54:54;;;;;;;11.77;7.00;;;17.60;53.00;;;;;;6742175;88;20192;-82
2022/03/22 18:04:54;;;;;;;13.37;8.53;;;17.20;53.50;;;;;;6748370;88;20247;-80
2022/03/22 18:14:56;;;;;;;14.87;8.48;;;16.90;56.10;;;;;;6721758;88;20214;-83
2022/03/22 18:24:57;;;;;;;15.23;9.27;;;16.50;56.90;;;;;;6727153;88;20185;-80
2022/03/22 18:34:58;;;;;;;14.63;9.13;;;15.80;60.50;;;;;;6741923;88;20368;-79
2022/03/22 18:44:59;;;;;;;14.65;8.50;;;15.30;58.40;;;;;;6747206;88;20208;-78
2022/03/22 18:54:59;;;;;;;16.95;9.18;;;15.20;60.90;;;;;;6743681;88;20265;-79
2022/03/22 19:05:00;;;;;;;15.02;9.40;;;14.80;62.30;;;;;;6744111;88;20214;-78
2022/03/22 19:15:01;;;;;;;14.13;8.82;;;14.10;63.30;;;;;;6744016;88;21040;-79
2022/03/22 19:25:02;;;;;;;13.60;8.05;;;13.70;63.50;;;;;;6745582;88;20202;-79
2022/03/22 19:35:04;;;;;;;13.88;7.72;;;13.20;63.40;;;;;;6746473;88;20231;-81
2022/03/22 19:45:05;;;;;;;16.80;7.70;;;13.30;63.10;;;;;;6733719;88;20224;-80
2022/03/22 19:55:07;;;;;;;13.70;7.82;;;13.50;62.60;;;;;;6730072;88;20201;-80
2022/03/22 20:05:09;;;;;;;11.63;6.97;;;13.10;63.40;;;;;;6729606;88;20216;-83
2022/03/22 20:15:10;;;;;;;15.75;8.95;;;13.30;62.00;;;;;;6740788;88;20240;-80
2022/03/22 20:25:11;;;;;;;15.55;9.27;;;12.70;66.10;;;;;;6757308;88;20252;-79
2022/03/22 20:35:14;;;;;;;15.10;9.02;;;12.20;67.80;;;;;;6754152;88;20200;-79
2022/03/22 20:45:20;;;;;;;17.37;9.57;;;11.90;68.40;;;;;;6734588;88;20482;-79
2022/03/22 20:55:21;;;;;;;15.50;8.95;;;11.70;69.80;;;;;;6734697;88;20164;-80
2022/03/22 21:05:22;;;;;;;16.75;8.80;;;11.70;69.60;;;;;;6729952;88;20211;-80
2022/03/22 21:15:22;;;;;;;14.13;8.10;;;11.00;69.80;;;;;;6731797;88;20189;-80
2022/03/22 21:25:23;;;;;;;16.30;8.70;;;11.30;70.00;;;;;;6741010;88;20212;-80
2022/03/22 21:35:24;;;;;;;19.50;8.43;;;10.90;72.30;;;;;;6758648;88;20233;-79
2022/03/22 21:45:25;;;;;;;15.43;8.48;;;10.80;72.10;;;;;;6748072;88;20211;-79
2022/03/22 21:55:26;;;;;;;16.85;8.80;;;10.40;72.40;;;;;;6738425;88;20169;-79
2022/03/22 22:05:26;;;;;;;15.05;8.27;;;10.20;73.70;;;;;;6733409;88;20205;-80
2022/03/22 22:15:28;;;;;;;16.77;8.85;;;9.70;74.80;;;;;;6746782;88;20193;-79
2022/03/22 22:25:30;;;;;;;14.90;8.15;;;9.40;76.70;;;;;;6755422;88;20289;-79
2022/03/22 22:35:31;;;;;;;18.27;7.97;;;9.60;76.70;;;;;;6745851;88;20197;-79
2022/03/22 22:45:31;;;;;;;18.58;9.15;;;9.50;76.30;;;;;;6743263;88;20305;-79
2022/03/22 22:55:32;;;;;;;15.07;7.90;;;9.10;78.10;;;;;;6748905;88;20322;-79
2022/03/22 23:05:34;;;;;;;14.25;8.02;;;8.90;79.20;;;;;;6744058;88;20549;-79
2022/03/22 23:15:34;;;;;;;14.05;8.10;;;8.80;80.00;;;;;;6759416;88;20191;-79
2022/03/22 23:25:35;;;;;;;13.75;7.65;;;9.20;80.70;;;;;;6756117;88;20218;-79
2022/03/22 23:35:36;;;;;;;20.70;7.78;;;9.00;81.50;;;;;;6751473;88;20224;-79
2022/03/22 23:45:37;;;;;;;13.73;8.20;;;8.90;82.70;;;;;;6744648;88;20196;-79
2022/03/22 23:55:39;;;;;;;13.65;7.85;;;8.40;85.10;;;;;;6754407;88;20837;-79
